Terminal Aerodrome Forecast
Issued by NWS Wilmington, NC

Home | Current Version | Previous Version | Text Only | Print | Product List | Glossary On
Versions: 1 2 3 4 5 6 7 8 9 10 11 12 13
879
FTUS42 KILM 252323
TAFFLO
TAF
KFLO 252323Z 2600/2624 17010KT P6SM SCT060 SCT250
     FM260700 15004KT P6SM BKN070
      TEMPO 2609/2613 BKN028
     FM261600 16008KT P6SM BKN040
     FM262300 14010KT P6SM SCT050 SCT150=

USA.gov is the U.S. government's official web portal to all federal, state and local government web resources and services.